createdAt,value
2022-07-28T00:02:32.077Z,24.97
2022-07-28T00:07:34.912Z,24.90
2022-07-28T00:12:37.924Z,24.96
2022-07-28T00:17:40.650Z,24.91
2022-07-28T00:22:45.223Z,24.68
2022-07-28T00:27:48.412Z,24.01
2022-07-28T00:32:50.982Z,24.18
2022-07-28T00:37:53.405Z,23.89
2022-07-28T00:42:56.829Z,24.28
2022-07-28T00:47:59.247Z,24.53
2022-07-28T00:53:01.852Z,24.50
2022-07-28T00:58:04.261Z,24.53
2022-07-28T01:03:07.963Z,24.38
2022-07-28T01:08:49.774Z,24.55
2022-07-28T01:14:01.376Z,24.05
2022-07-28T01:19:39.840Z,23.72
2022-07-28T01:24:56.375Z,23.74
2022-07-28T01:30:05.094Z,23.95
2022-07-28T01:35:19.707Z,23.76
2022-07-28T01:40:28.207Z,23.72
2022-07-28T01:45:32.745Z,23.87
2022-07-28T01:50:37.610Z,23.62
2022-07-28T01:55:43.172Z,23.64
2022-07-28T02:00:50.364Z,23.55
2022-07-28T02:05:55.741Z,23.81
2022-07-28T02:11:18.763Z,23.82
2022-07-28T02:16:25.069Z,23.15
2022-07-28T02:21:29.892Z,23.45
2022-07-28T02:26:41.559Z,23.65
2022-07-28T02:32:24.101Z,23.31
2022-07-28T02:37:37.830Z,23.08
2022-07-28T02:42:41.984Z,22.86
2022-07-28T02:47:52.019Z,21.90
2022-07-28T02:52:59.635Z,22.74
2022-07-28T02:58:05.313Z,22.95
2022-07-28T03:03:09.928Z,23.28
2022-07-28T03:08:12.662Z,23.45
2022-07-28T03:13:15.240Z,23.32
2022-07-28T03:18:17.706Z,23.07
2022-07-28T03:23:23.637Z,23.26
2022-07-28T03:28:27.407Z,23.18
2022-07-28T03:33:30.087Z,23.36
2022-07-28T03:38:59.326Z,23.28
2022-07-28T03:44:03.025Z,22.99
2022-07-28T03:49:08.609Z,22.93
2022-07-28T03:54:11.488Z,22.86
2022-07-28T03:59:14.393Z,22.83
2022-07-28T04:04:17.294Z,22.87
2022-07-28T04:09:19.915Z,22.85
2022-07-28T04:14:22.701Z,22.57
2022-07-28T04:19:25.307Z,22.29
2022-07-28T04:24:27.749Z,22.46
2022-07-28T04:29:31.688Z,22.46
2022-07-28T04:34:35.539Z,22.38
2022-07-28T04:39:38.134Z,22.88
2022-07-28T04:44:42.510Z,23.15
2022-07-28T04:49:45.287Z,23.26
2022-07-28T04:54:48.332Z,23.28
2022-07-28T04:59:51.355Z,23.44
2022-07-28T05:04:54.252Z,23.43
2022-07-28T05:09:56.766Z,23.60
2022-07-28T05:14:59.522Z,23.60
2022-07-28T05:20:02.542Z,23.58
2022-07-28T05:25:14.295Z,23.63
2022-07-28T05:30:17.317Z,23.68
2022-07-28T05:35:20.231Z,23.76
2022-07-28T05:40:22.705Z,23.69
2022-07-28T05:45:25.440Z,23.73
2022-07-28T05:50:27.976Z,23.74
2022-07-28T05:55:30.455Z,23.90
2022-07-28T06:00:33.758Z,23.80
2022-07-28T06:05:37.410Z,24.08
2022-07-28T06:11:01.695Z,24.21
2022-07-28T06:16:07.392Z,24.03
2022-07-28T06:21:14.276Z,23.88
2022-07-28T06:26:17.030Z,24.05
2022-07-28T06:31:19.592Z,23.86
2022-07-28T06:36:22.117Z,24.11
2022-07-28T06:41:24.553Z,24.45
2022-07-28T06:46:27.064Z,24.55
2022-07-28T06:51:29.973Z,24.65
2022-07-28T06:56:32.419Z,24.47
2022-07-28T07:01:35.001Z,24.83
2022-07-28T07:06:37.536Z,25.04
2022-07-28T07:11:40.949Z,25.15
2022-07-28T07:16:43.580Z,25.34
2022-07-28T07:21:46.412Z,25.85
2022-07-28T07:26:48.884Z,26.06
2022-07-28T07:31:52.937Z,25.95
2022-07-28T07:36:56.126Z,26.22
2022-07-28T07:41:58.645Z,26.70
2022-07-28T07:47:03.034Z,26.70
2022-07-28T07:52:05.873Z,27.07
2022-07-28T07:57:08.624Z,27.18
2022-07-28T08:02:11.179Z,27.30
2022-07-28T08:07:13.805Z,27.46
2022-07-28T08:12:16.900Z,27.82
2022-07-28T08:17:27.084Z,28.01
2022-07-28T08:22:29.653Z,28.38
2022-07-28T08:27:32.112Z,28.69
2022-07-28T08:32:34.532Z,29.02
2022-07-28T08:37:39.836Z,29.09
2022-07-28T08:42:57.554Z,29.33
2022-07-28T08:48:09.197Z,29.76
2022-07-28T08:53:12.267Z,30.08
2022-07-28T08:58:16.445Z,30.11
2022-07-28T09:03:19.050Z,30.05
2022-07-28T09:08:22.462Z,30.72
2022-07-28T09:13:25.006Z,30.72
2022-07-28T09:18:27.706Z,29.56
2022-07-28T09:23:48.115Z,29.70
2022-07-28T09:28:55.813Z,30.67
2022-07-28T09:34:04.134Z,29.88
2022-07-28T09:39:07.058Z,30.66
2022-07-28T09:44:21.914Z,31.45
2022-07-28T09:49:44.531Z,32.21
2022-07-28T09:55:00.608Z,32.49
2022-07-28T10:00:07.255Z,32.58
2022-07-28T10:05:17.814Z,33.52
2022-07-28T10:10:23.288Z,33.63
2022-07-28T10:15:50.485Z,33.38
2022-07-28T10:20:53.904Z,33.41
2022-07-28T10:25:58.715Z,33.96
2022-07-28T10:31:03.300Z,35.25
2022-07-28T10:36:07.029Z,35.91
2022-07-28T10:41:12.287Z,35.50
2022-07-28T10:46:16.868Z,35.41
2022-07-28T10:51:22.096Z,35.54
2022-07-28T10:56:46.293Z,36.25
2022-07-28T11:01:50.930Z,35.57
2022-07-28T11:07:13.495Z,35.20
2022-07-28T11:12:51.958Z,34.90
2022-07-28T11:17:59.597Z,35.62
2022-07-28T11:23:46.606Z,35.30
2022-07-28T11:29:11.145Z,34.52
2022-07-28T11:34:14.874Z,34.25
2022-07-28T11:39:25.128Z,32.65
2022-07-28T11:44:29.792Z,34.93
2022-07-28T11:49:33.212Z,37.49
2022-07-28T11:54:37.357Z,37.48
2022-07-28T11:59:44.645Z,37.08
2022-07-28T12:05:05.826Z,35.24
2022-07-28T12:10:53.145Z,34.77
2022-07-28T12:15:53.268Z,33.24
2022-07-28T12:20:56.015Z,34.06
2022-07-28T12:25:58.750Z,34.52
2022-07-28T12:31:15.763Z,34.77
2022-07-28T12:36:21.654Z,36.59
2022-07-28T12:41:30.227Z,36.22
2022-07-28T12:46:33.523Z,34.25
2022-07-28T12:51:45.397Z,33.80
2022-07-28T12:56:49.804Z,33.23
2022-07-28T13:01:53.382Z,33.21
2022-07-28T13:06:56.883Z,33.81
2022-07-28T13:11:59.427Z,35.30
2022-07-28T13:17:02.080Z,37.00
2022-07-28T13:22:08.883Z,36.52
2022-07-28T13:27:11.867Z,34.37
2022-07-28T13:32:14.595Z,33.01
2022-07-28T13:37:17.539Z,32.37
2022-07-28T13:42:23.590Z,33.45
2022-07-28T13:47:27.102Z,33.70
2022-07-28T13:52:38.327Z,32.04
2022-07-28T13:57:43.159Z,34.16
2022-07-28T14:02:49.192Z,34.96
2022-07-28T14:07:51.753Z,35.54
2022-07-28T14:12:54.282Z,35.28
2022-07-28T14:17:56.794Z,34.63
2022-07-28T14:22:59.252Z,34.62
2022-07-28T14:28:01.728Z,35.32
2022-07-28T14:33:06.398Z,35.53
2022-07-28T14:43:32.602Z,34.52
2022-07-28T14:48:35.100Z,34.35
2022-07-28T14:53:40.063Z,34.60
2022-07-28T14:58:53.803Z,33.62
2022-07-28T15:03:56.604Z,33.68
2022-07-28T15:08:59.258Z,34.28
2022-07-28T15:14:01.668Z,33.80
2022-07-28T15:19:04.364Z,33.20
2022-07-28T15:24:09.025Z,33.13
2022-07-28T15:29:11.626Z,33.40
2022-07-28T15:34:14.422Z,33.29
2022-07-28T15:39:17.072Z,32.22
2022-07-28T15:44:22.393Z,32.04
2022-07-28T15:49:28.857Z,31.73
2022-07-28T15:54:31.406Z,31.14
2022-07-28T15:59:48.723Z,30.67
2022-07-28T16:04:53.920Z,30.91
2022-07-28T16:09:57.540Z,31.11
2022-07-28T16:15:00.321Z,30.39
2022-07-28T16:20:03.705Z,30.48
2022-07-28T16:25:08.252Z,30.72
2022-07-28T16:30:11.740Z,30.61
2022-07-28T16:35:14.750Z,30.12
2022-07-28T16:40:17.194Z,29.88
2022-07-28T16:45:19.910Z,30.09
2022-07-28T16:50:25.318Z,30.28
2022-07-28T16:55:28.239Z,30.27
2022-07-28T17:00:30.797Z,30.04
2022-07-28T17:05:33.333Z,30.18
2022-07-28T17:10:35.954Z,30.43
2022-07-28T17:15:40.733Z,30.53
2022-07-28T17:20:43.289Z,30.37
2022-07-28T17:26:08.990Z,30.19
2022-07-28T17:31:08.525Z,29.76
2022-07-28T17:36:11.029Z,29.34
2022-07-28T17:41:14.315Z,29.16
2022-07-28T17:46:17.594Z,29.32
2022-07-28T17:51:23.819Z,29.33
2022-07-28T17:56:26.617Z,29.22
2022-07-28T18:01:29.323Z,29.17
2022-07-28T18:06:35.098Z,29.17
2022-07-28T18:11:58.016Z,29.14
2022-07-28T18:17:01.183Z,29.18
2022-07-28T18:22:03.627Z,29.07
2022-07-28T18:27:06.068Z,29.03
2022-07-28T18:32:10.001Z,29.18
2022-07-28T18:37:13.077Z,29.25
2022-07-28T18:42:16.170Z,29.17
2022-07-28T18:47:18.706Z,29.05
2022-07-28T18:52:21.180Z,29.00
2022-07-28T18:57:23.804Z,28.81
2022-07-28T19:02:26.631Z,28.76
2022-07-28T19:07:30.128Z,28.73
2022-07-28T19:12:34.295Z,28.68
2022-07-28T19:17:37.042Z,28.47
2022-07-28T19:22:40.494Z,28.30
2022-07-28T19:27:43.007Z,28.16
2022-07-28T19:32:45.509Z,28.34
2022-07-28T19:37:48.626Z,28.42
2022-07-28T19:42:51.211Z,28.46
2022-07-28T19:47:54.876Z,28.40
2022-07-28T19:52:57.997Z,28.41
2022-07-28T19:58:00.514Z,28.50
2022-07-28T20:03:03.216Z,28.73
2022-07-28T20:08:06.103Z,28.65
2022-07-28T20:13:09.991Z,28.48
2022-07-28T20:18:12.461Z,28.23
2022-07-28T20:23:15.593Z,27.78
2022-07-28T20:28:18.111Z,26.36
2022-07-28T20:33:20.708Z,25.98
2022-07-28T20:38:23.529Z,23.76
2022-07-28T20:43:35.949Z,23.66
2022-07-28T20:48:39.595Z,23.89
2022-07-28T20:53:42.073Z,23.64
2022-07-28T20:58:44.644Z,23.74
2022-07-28T21:03:47.068Z,23.47
2022-07-28T21:08:49.500Z,23.40
2022-07-28T21:13:54.280Z,23.70
2022-07-28T21:18:57.288Z,24.30
2022-07-28T21:23:59.833Z,24.46
2022-07-28T21:29:12.662Z,23.72
2022-07-28T21:34:15.988Z,24.21
2022-07-28T21:39:18.766Z,23.59
2022-07-28T21:44:21.497Z,24.08
2022-07-28T21:49:24.406Z,23.79
2022-07-28T21:54:26.990Z,23.52
2022-07-28T21:59:29.634Z,22.99
2022-07-28T22:04:32.251Z,22.85
2022-07-28T22:09:37.908Z,22.58
2022-07-28T22:14:40.636Z,22.29
2022-07-28T22:19:43.147Z,22.28
2022-07-28T22:24:46.335Z,22.36
2022-07-28T22:29:52.086Z,22.25
2022-07-28T22:34:54.743Z,22.76
2022-07-28T22:39:57.200Z,23.15
2022-07-28T22:45:00.469Z,23.63
2022-07-28T22:50:03.182Z,23.41
2022-07-28T22:55:06.171Z,22.57
2022-07-28T23:00:09.580Z,22.40
2022-07-28T23:05:12.099Z,22.37
2022-07-28T23:10:14.652Z,23.25
2022-07-28T23:15:17.168Z,23.61
2022-07-28T23:20:19.774Z,23.28
2022-07-28T23:25:26.926Z,23.04
2022-07-28T23:30:29.362Z,22.17
2022-07-28T23:35:32.082Z,22.15
2022-07-28T23:40:34.644Z,22.00
2022-07-28T23:45:37.151Z,21.92
2022-07-28T23:50:40.572Z,22.43
2022-07-28T23:55:45.460Z,22.12
